Currently 49°F in Riverside (Orangecrest), California, USA
49°F
51°F / 49°F
calm
0.00"
Tuesday, October 26, 2021 4:12 AM PDT

Riverside (Orangecrest), California Weather Summary
Last 36 Hours

Temperature Winds Hourly Humidity Dewpoint
Time Report Norm Report Norm Max Gusts Precip. Rpt. Norm Rpt. Norm Pressure
1Tue 04:12 AM  49.1°F  62°F  calm  2 mph  none  0.00"  95%  46%  47°F  40°F  N/A
3Tue 04:11 AM  49.0°F  62°F  calm  2 mph  none  ----  95%  46%  47°F  40°F  N/A
Tue 04:00 AM  49.1°F  62°F  calm  2 mph  5 mph  0.00"  94%  46%  47°F  40°F  N/A
Tue 03:00 AM  49.9°F  63°F  calm  2 mph  5 mph  0.00"  94%  46%  48°F  41°F  N/A
Tue 02:00 AM  50.3°F  63°F  calm  2 mph  4 mph  0.00"  94%  47%  48°F  42°F  N/A
Tue 01:00 AM  50.9°F  63°F  calm  2 mph  4 mph  0.00"  93%  47%  49°F  42°F  N/A
2Tue 12:14 AM  51.3°F  64°F  calm  2 mph  none  ----  93%  47%  49°F  42°F  N/A
Tue 12:00 AM  51.3°F  64°F  2 mph SW  2 mph  5 mph  0.00"  92%  48%  49°F  43°F  N/A
Mon 11:00 PM  51.3°F  65°F  calm  2 mph  4 mph  0.00"  91%  46%  49°F  43°F  N/A
Mon 10:00 PM  52.3°F  66°F  calm  3 mph  2 mph  0.00"  91%  43%  50°F  42°F  N/A
Mon 09:00 PM  52.4°F  67°F  calm  2 mph  5 mph  0.00"  91%  43%  50°F  42°F  N/A
Mon 08:00 PM  52.3°F  68°F  1 mph SW  3 mph  11 mph  0.00"  91%  41%  50°F  42°F  N/A
Mon 07:00 PM  52.4°F  70°F  3 mph SW  4 mph  14 mph  0.01"  90%  37%  50°F  41°F  N/A
Mon 06:00 PM  51.4°F  73°F  5 mph W  5 mph  17 mph  0.01"  92%  32%  49°F  40°F  N/A
Mon 05:00 PM  51.8°F  76°F  10 mph W  6 mph  25 mph  0.10"  94%  26%  50°F  37°F  N/A
Mon 04:00 PM  57.7°F  78°F  9 mph N  6 mph  20 mph  0.03"  91%  23%  55°F  36°F  N/A
Mon 03:00 PM  58.0°F  78°F  12 mph SW  6 mph  22 mph  0.00"  85%  22%  53°F  35°F  N/A
Mon 02:00 PM  59.3°F  77°F  12 mph SW  5 mph  22 mph  0.00"  78%  23%  52°F  35°F  N/A
Mon 01:00 PM  58.7°F  76°F  8 mph SW  5 mph  20 mph  0.00"  82%  24%  53°F  36°F  N/A
Mon 12:00 PM  57.9°F  75°F  5 mph SW  4 mph  13 mph  0.00"  84%  26%  53°F  36°F  N/A
Mon 11:00 AM  58.0°F  72°F  6 mph SW  4 mph  14 mph  0.00"  80%  30%  52°F  38°F  N/A
Mon 10:00 AM  58.8°F  68°F  7 mph SW  2 mph  14 mph  0.00"  74%  38%  50°F  41°F  N/A
Mon 09:00 AM  56.3°F  64°F  5 mph SW  3 mph  12 mph  0.00"  80%  46%  50°F  42°F  N/A
Mon 08:00 AM  53.7°F  61°F  4 mph SW  2 mph  10 mph  0.00"  92%  48%  51°F  41°F  N/A
Mon 07:00 AM  54.4°F  60°F  calm  3 mph  10 mph  0.00"  94%  49%  52°F  40°F  N/A
Mon 06:00 AM  54.7°F  61°F  3 mph SW  2 mph  8 mph  0.00"  93%  50%  53°F  41°F  N/A
Mon 05:00 AM  54.6°F  61°F  calm  2 mph  5 mph  0.00"  90%  49%  52°F  41°F  N/A
Mon 04:00 AM  54.1°F  62°F  calm  2 mph  4 mph  0.00"  88%  48%  51°F  42°F  N/A
Mon 03:00 AM  55.1°F  63°F  calm  2 mph  none  0.00"  88%  49%  51°F  42°F  N/A
Mon 02:00 AM  54.9°F  63°F  calm  2 mph  3 mph  0.00"  87%  49%  51°F  43°F  N/A
Mon 01:00 AM  55.2°F  64°F  calm  2 mph  7 mph  0.00"  86%  48%  51°F  43°F  N/A
Mon 12:00 AM  56.1°F  64°F  3 mph SW  2 mph  7 mph  0.00"  83%  48%  51°F  43°F  N/A
Sun 11:00 PM  57.1°F  65°F  2 mph SW  2 mph  6 mph  0.00"  80%  47%  51°F  44°F  N/A
Sun 10:00 PM  57.8°F  66°F  3 mph SW  2 mph  9 mph  0.00"  78%  44%  51°F  43°F  N/A
Sun 09:00 PM  59.3°F  67°F  3 mph SW  2 mph  8 mph  0.00"  74%  43%  51°F  43°F  N/A
Sun 08:00 PM  61.6°F  68°F  calm  3 mph  8 mph  0.00"  70%  41%  51°F  43°F  N/A
Sun 07:00 PM  63.9°F  70°F  3 mph SW  4 mph  8 mph  0.00"  62%  37%  50°F  42°F  N/A
Sun 06:00 PM  66.0°F  73°F  2 mph SW  5 mph  9 mph  0.00"  56%  32%  49°F  41°F  N/A
Sun 05:00 PM  68.0°F  77°F  2 mph SW  6 mph  9 mph  0.00"  53%  26%  49°F  38°F  N/A

  1. Current weather data. No green row appears if the current weather data is also the high or low for the current day.
  2. High temperature for the current day.
  3. Low temperature for the current day.

The Riverside (Orangecrest), California weather pages are a service of WeatherCurrents.
Copyright ©2021  WeatherCurrents. All rights reserved. - Submit questions and comments - Privacy Policy

This page automatically refreshes every 10 minutes.